Time;durP1;ratioP1;P1;durP2;ratioP2;P2;SDS_P1;SDS_P2;PMS_P1;PMS_P2;Temp;Humidity;BMP_temperature;BMP_pressure;BME280_temperature;BME280_humidity;BME280_pressure;Samples;Min_cycle;Max_cycle;Signal;HPM_P1;HPM_P2
2021/12/04 00:00:59;;;;;;;27.65;11.07;;;;;;;;;;8432407;28;20052;-77
2021/12/04 00:05:04;;;;;;;28.23;10.35;;;;;;;;;;8432294;28;20052;-77
2021/12/04 00:09:10;;;;;;;26.23;12.00;;;;;;;;;;8432176;28;20487;-77
2021/12/04 00:13:13;;;;;;;26.08;11.15;;;;;;;;;;8432031;28;20048;-77
2021/12/04 00:17:16;;;;;;;32.10;11.15;;;;;;;;;;8431918;28;20131;-77
2021/12/04 00:21:19;;;;;;;31.67;11.38;;;;;;;;;;8431817;28;20048;-77
2021/12/04 00:25:23;;;;;;;29.88;10.43;;;;;;;;;;8458180;28;20518;-77
2021/12/04 00:29:27;;;;;;;35.08;11.77;;;;;;;;;;8457032;28;20410;-77
2021/12/04 00:33:32;;;;;;;27.98;10.50;;;;;;;;;;8431387;28;20051;-77
2021/12/04 00:50:41;;;;;;;21.77;10.63;;;;;;;;;;8366105;28;20048;-75
2021/12/04 00:54:44;;;;;;;30.20;11.55;;;;;;;;;;8362961;28;20036;-75
2021/12/04 00:58:47;;;;;;;24.40;11.25;;;;;;;;;;8360677;28;20203;-75
2021/12/04 01:02:52;;;;;;;31.75;14.07;;;;;;;;;;8369148;28;20112;-74
2021/12/04 01:06:56;;;;;;;20.92;8.40;;;;;;;;;;8372354;28;20051;-75
2021/12/04 01:11:02;;;;;;;32.05;12.35;;;;;;;;;;8374372;28;20225;-75
2021/12/04 01:15:07;;;;;;;35.88;13.20;;;;;;;;;;8379960;28;20119;-75
2021/12/04 01:19:14;;;;;;;26.08;9.40;;;;;;;;;;8366500;28;20040;-76
2021/12/04 01:23:17;;;;;;;23.75;10.68;;;;;;;;;;8375968;28;20049;-76
2021/12/04 01:27:22;;;;;;;24.30;9.65;;;;;;;;;;8333576;28;20109;-76
2021/12/04 01:31:26;;;;;;;24.67;10.90;;;;;;;;;;8351571;28;20045;-75
2021/12/04 01:35:31;;;;;;;20.63;8.10;;;;;;;;;;8351584;28;20048;-75
2021/12/04 01:39:34;;;;;;;16.92;7.95;;;;;;;;;;8351037;28;20289;-75
2021/12/04 01:43:38;;;;;;;21.30;9.02;;;;;;;;;;8333829;28;20081;-75
2021/12/04 01:47:41;;;;;;;20.90;8.77;;;;;;;;;;8334940;28;20108;-75
2021/12/04 01:51:46;;;;;;;29.58;10.35;;;;;;;;;;8358246;28;20148;-75
2021/12/04 01:55:52;;;;;;;30.73;12.27;;;;;;;;;;8339874;28;20211;-75
2021/12/04 01:59:56;;;;;;;19.92;9.18;;;;;;;;;;8358597;28;20045;-75
2021/12/04 02:03:59;;;;;;;19.42;7.35;;;;;;;;;;8345452;28;20064;-76
2021/12/04 02:08:05;;;;;;;22.70;8.35;;;;;;;;;;8369708;28;20045;-75
2021/12/04 02:12:10;;;;;;;19.77;8.10;;;;;;;;;;8389510;28;20083;-75
2021/12/04 02:16:17;;;;;;;26.88;9.43;;;;;;;;;;8390897;28;20111;-75
2021/12/04 02:20:25;;;;;;;17.60;7.63;;;;;;;;;;8371212;28;20241;-78
2021/12/04 02:24:28;;;;;;;22.65;8.57;;;;;;;;;;8359987;28;20048;-75
2021/12/04 02:28:32;;;;;;;18.67;7.88;;;;;;;;;;8355028;28;20219;-75
2021/12/04 02:32:35;;;;;;;24.50;9.68;;;;;;;;;;8338240;28;20068;-76
2021/12/04 02:36:42;;;;;;;19.67;8.93;;;;;;;;;;8355769;28;20061;-75
2021/12/04 02:40:46;;;;;;;20.33;8.27;;;;;;;;;;8356775;28;20203;-75
2021/12/04 02:44:50;;;;;;;21.42;7.78;;;;;;;;;;8355204;28;20116;-75
2021/12/04 02:48:53;;;;;;;17.83;7.63;;;;;;;;;;8356369;28;20057;-75
2021/12/04 02:52:59;;;;;;;18.55;9.40;;;;;;;;;;8337656;28;20058;-75
2021/12/04 02:57:03;;;;;;;20.02;8.82;;;;;;;;;;8355534;28;20042;-75
2021/12/04 03:01:06;;;;;;;24.23;8.10;;;;;;;;;;8355758;28;20108;-75
2021/12/04 03:05:11;;;;;;;16.38;6.43;;;;;;;;;;8355657;28;20338;-75
2021/12/04 03:09:16;;;;;;;17.10;8.05;;;;;;;;;;8355363;28;20322;-75
2021/12/04 03:13:21;;;;;;;13.40;5.50;;;;;;;;;;8355160;28;20238;-76
2021/12/04 03:17:26;;;;;;;18.17;8.18;;;;;;;;;;8354081;28;20056;-75
2021/12/04 03:21:29;;;;;;;16.35;7.60;;;;;;;;;;8356803;28;20108;-75
2021/12/04 03:25:34;;;;;;;15.55;6.43;;;;;;;;;;8355633;28;20045;-75
2021/12/04 03:29:41;;;;;;;14.93;6.45;;;;;;;;;;8355869;28;20286;-75
2021/12/04 03:42:27;;;;;;;21.67;7.22;;;;;;;;;;8339324;28;20056;-76
2021/12/04 03:46:30;;;;;;;18.88;8.70;;;;;;;;;;8338267;28;20052;-78
2021/12/04 03:50:34;;;;;;;16.92;5.88;;;;;;;;;;8338278;28;20043;-75
2021/12/04 03:54:37;;;;;;;11.77;6.05;;;;;;;;;;8355220;28;20048;-75
2021/12/04 03:58:42;;;;;;;14.48;6.65;;;;;;;;;;8356677;28;20064;-75
2021/12/04 04:02:45;;;;;;;15.68;5.55;;;;;;;;;;8356525;28;20047;-77
2021/12/04 04:06:49;;;;;;;18.25;5.88;;;;;;;;;;8338784;28;20113;-75
2021/12/04 04:10:54;;;;;;;14.73;5.93;;;;;;;;;;8354960;28;20038;-75
2021/12/04 04:14:59;;;;;;;13.30;6.18;;;;;;;;;;8357062;28;20065;-75
2021/12/04 04:19:02;;;;;;;16.80;6.65;;;;;;;;;;8354897;28;20203;-76
2021/12/04 04:23:06;;;;;;;14.43;6.50;;;;;;;;;;8356068;28;20117;-75
2021/12/04 04:27:09;;;;;;;15.38;6.50;;;;;;;;;;8354496;28;20041;-75
2021/12/04 04:31:15;;;;;;;14.90;7.07;;;;;;;;;;8335736;28;20073;-76
2021/12/04 04:35:20;;;;;;;17.80;6.65;;;;;;;;;;8353418;28;20048;-74
2021/12/04 04:39:47;;;;;;;16.10;7.88;;;;;;;;;;8335758;28;20342;-75
2021/12/04 05:01:23;;;;;;;15.95;7.25;;;;;;;;;;8351120;28;20049;-75
2021/12/04 05:14:18;;;;;;;13.82;6.35;;;;;;;;;;8349991;28;20045;-75
2021/12/04 05:18:31;;;;;;;13.27;7.00;;;;;;;;;;8370956;28;20048;-76
2021/12/04 05:22:36;;;;;;;20.67;8.63;;;;;;;;;;8383229;28;20063;-76
2021/12/04 05:26:39;;;;;;;18.65;8.13;;;;;;;;;;8367721;28;20049;-76
2021/12/04 05:30:42;;;;;;;14.93;8.02;;;;;;;;;;8349677;28;20049;-76
2021/12/04 05:34:45;;;;;;;15.55;7.25;;;;;;;;;;8367995;28;20326;-75
2021/12/04 05:38:51;;;;;;;11.60;5.35;;;;;;;;;;8383082;28;20052;-74
2021/12/04 05:43:00;;;;;;;16.30;7.28;;;;;;;;;;8365951;28;20060;-75
2021/12/04 05:47:08;;;;;;;18.77;7.15;;;;;;;;;;8366251;28;20104;-75
2021/12/04 05:51:29;;;;;;;16.17;7.18;;;;;;;;;;8382874;28;20063;-75
2021/12/04 05:55:43;;;;;;;19.50;7.57;;;;;;;;;;8382338;28;20051;-75
2021/12/04 05:59:47;;;;;;;13.63;6.50;;;;;;;;;;8382125;28;20051;-75
2021/12/04 06:03:50;;;;;;;25.60;9.45;;;;;;;;;;8364524;28;20057;-75
2021/12/04 06:07:53;;;;;;;19.52;7.97;;;;;;;;;;8381942;28;20060;-77
2021/12/04 06:12:04;;;;;;;19.92;8.63;;;;;;;;;;8382065;28;20061;-75
2021/12/04 06:16:08;;;;;;;25.00;7.70;;;;;;;;;;8381852;28;20099;-75
2021/12/04 06:24:32;;;;;;;18.50;7.05;;;;;;;;;;8381996;28;20048;-75
2021/12/04 06:28:37;;;;;;;17.00;7.25;;;;;;;;;;8381516;28;20053;-75
2021/12/04 06:32:41;;;;;;;17.60;7.75;;;;;;;;;;8372422;28;20210;-75
2021/12/04 06:36:44;;;;;;;17.10;5.63;;;;;;;;;;8380853;28;20076;-76
2021/12/04 06:40:48;;;;;;;17.58;6.75;;;;;;;;;;8359481;28;20073;-75
2021/12/04 06:44:56;;;;;;;19.83;7.63;;;;;;;;;;8387519;28;20073;-75
2021/12/04 06:49:06;;;;;;;11.18;5.72;;;;;;;;;;8380283;28;20109;-75
2021/12/04 06:53:21;;;;;;;15.77;7.78;;;;;;;;;;8354569;28;20045;-75
2021/12/04 06:57:25;;;;;;;16.90;6.55;;;;;;;;;;8336714;28;20046;-75
2021/12/04 07:01:30;;;;;;;15.40;7.03;;;;;;;;;;8354624;28;20061;-75
2021/12/04 07:05:33;;;;;;;14.93;6.57;;;;;;;;;;8353155;28;20047;-75
2021/12/04 07:09:37;;;;;;;13.07;5.65;;;;;;;;;;8351938;28;20037;-76
2021/12/04 07:13:41;;;;;;;14.75;6.85;;;;;;;;;;8351536;28;20037;-76
2021/12/04 07:17:46;;;;;;;20.05;9.60;;;;;;;;;;8337406;28;20045;-75
2021/12/04 07:21:49;;;;;;;22.85;9.77;;;;;;;;;;8353248;28;20045;-75
2021/12/04 07:25:52;;;;;;;16.48;8.52;;;;;;;;;;8353275;28;20299;-76
2021/12/04 07:29:56;;;;;;;20.17;9.70;;;;;;;;;;8352755;28;20061;-78
2021/12/04 07:34:00;;;;;;;20.75;8.48;;;;;;;;;;8349437;28;20048;-75
2021/12/04 07:38:04;;;;;;;13.25;7.13;;;;;;;;;;8380063;28;20041;-76
2021/12/04 07:42:08;;;;;;;33.42;14.05;;;;;;;;;;8386789;28;20082;-77
2021/12/04 07:46:12;;;;;;;20.73;9.15;;;;;;;;;;8393846;28;20057;-77
2021/12/04 07:50:17;;;;;;;16.30;7.00;;;;;;;;;;8390180;28;20322;-76
2021/12/04 07:54:21;;;;;;;12.05;5.47;;;;;;;;;;8386828;28;20037;-76
2021/12/04 07:58:25;;;;;;;18.92;6.78;;;;;;;;;;8358218;28;20047;-75
2021/12/04 08:02:27;;;;;;;15.10;7.00;;;;;;;;;;8377267;28;20082;-75
2021/12/04 08:06:35;;;;;;;12.88;6.05;;;;;;;;;;8380499;28;20272;-76
2021/12/04 08:10:38;;;;;;;18.17;7.30;;;;;;;;;;8373817;28;20036;-75
2021/12/04 08:14:42;;;;;;;15.50;6.68;;;;;;;;;;8382153;28;20045;-75
2021/12/04 08:18:45;;;;;;;18.10;7.90;;;;;;;;;;8361479;28;20045;-75
2021/12/04 08:22:51;;;;;;;17.38;7.43;;;;;;;;;;8378924;28;20045;-76
2021/12/04 08:26:57;;;;;;;15.68;7.40;;;;;;;;;;8380012;28;20060;-75
2021/12/04 08:31:02;;;;;;;15.35;7.22;;;;;;;;;;8382164;28;20044;-76
2021/12/04 08:35:06;;;;;;;23.17;9.60;;;;;;;;;;8364205;28;20056;-75
2021/12/04 08:39:12;;;;;;;38.10;13.15;;;;;;;;;;8381947;28;20214;-75
2021/12/04 08:43:15;;;;;;;25.88;10.90;;;;;;;;;;8375333;28;20049;-76
2021/12/04 08:47:19;;;;;;;30.58;13.30;;;;;;;;;;8377844;28;20067;-75
2021/12/04 08:51:26;;;;;;;26.45;12.00;;;;;;;;;;8380524;28;20037;-75
2021/12/04 08:55:37;;;;;;;41.08;21.35;;;;;;;;;;8381022;28;20117;-75
2021/12/04 08:59:40;;;;;;;34.45;13.32;;;;;;;;;;8361172;28;20111;-75
2021/12/04 09:03:48;;;;;;;35.15;13.60;;;;;;;;;;8373477;28;20064;-76
2021/12/04 09:07:53;;;;;;;20.02;8.25;;;;;;;;;;8378914;28;20068;-77
2021/12/04 09:12:03;;;;;;;14.95;5.95;;;;;;;;;;8353491;28;20061;-75
2021/12/04 09:16:07;;;;;;;11.23;5.35;;;;;;;;;;8377657;28;20037;-75
2021/12/04 09:20:15;;;;;;;15.13;7.13;;;;;;;;;;8374408;28;20083;-75
2021/12/04 09:24:24;;;;;;;13.30;5.90;;;;;;;;;;8360763;28;20041;-75
2021/12/04 09:28:39;;;;;;;14.07;6.45;;;;;;;;;;8360110;28;20064;-76
2021/12/04 10:12:20;;;;;;;22.85;14.57;;;;;;;;;;8366461;28;20106;-76
2021/12/04 10:16:46;;;;;;;14.40;8.00;;;;;;;;;;8369957;28;20037;-75
2021/12/04 10:21:06;;;;;;;31.23;12.85;;;;;;;;;;8365565;28;20064;-75
2021/12/04 10:34:01;;;;;;;42.67;22.15;;;;;;;;;;8383182;28;20037;-75
2021/12/04 10:38:14;;;;;;;18.20;8.35;;;;;;;;;;8360521;28;20045;-75
2021/12/04 10:42:23;;;;;;;14.02;7.60;;;;;;;;;;8381899;28;20126;-75
2021/12/04 10:46:31;;;;;;;17.45;9.35;;;;;;;;;;8386557;28;20211;-75
2021/12/04 10:50:43;;;;;;;15.27;7.43;;;;;;;;;;8386166;28;20051;-75
2021/12/04 10:54:52;;;;;;;19.88;11.77;;;;;;;;;;8361143;28;20064;-75
2021/12/04 10:59:20;;;;;;;26.27;16.70;;;;;;;;;;8385859;28;20319;-74
2021/12/04 11:18:34;;;;;;;15.88;8.38;;;;;;;;;;8331169;28;20053;-75
2021/12/04 11:38:46;;;;;;;13.65;7.05;;;;;;;;;;8337768;28;20041;-76
2021/12/04 11:43:02;;;;;;;12.32;6.38;;;;;;;;;;8349656;28;20052;-75
2021/12/04 11:47:09;;;;;;;16.63;7.30;;;;;;;;;;8349335;28;20064;-76
2021/12/04 11:51:15;;;;;;;25.88;13.63;;;;;;;;;;8346553;28;20041;-75
2021/12/04 11:55:20;;;;;;;15.32;7.40;;;;;;;;;;8349986;28;20041;-76
2021/12/04 11:59:28;;;;;;;18.13;13.02;;;;;;;;;;8335973;28;20072;-76
2021/12/04 12:03:35;;;;;;;22.30;12.80;;;;;;;;;;8337258;28;20084;-75
2021/12/04 12:07:38;;;;;;;28.55;11.20;;;;;;;;;;8332129;28;20037;-74
2021/12/04 12:11:50;;;;;;;43.25;20.67;;;;;;;;;;8332106;28;20053;-74
2021/12/04 12:16:00;;;;;;;25.90;13.05;;;;;;;;;;8351027;28;20044;-74
2021/12/04 12:20:13;;;;;;;30.08;12.68;;;;;;;;;;8351963;28;20277;-74
2021/12/04 12:33:04;;;;;;;16.00;7.63;;;;;;;;;;8350395;28;20041;-74
2021/12/04 12:37:18;;;;;;;27.55;13.57;;;;;;;;;;8350452;28;20281;-75
2021/12/04 12:41:26;;;;;;;18.13;7.75;;;;;;;;;;8331278;28;20061;-75
2021/12/04 12:45:34;;;;;;;20.05;7.70;;;;;;;;;;8316326;28;20046;-74
2021/12/04 12:49:39;;;;;;;18.48;9.48;;;;;;;;;;8317826;28;20053;-75
2021/12/04 12:53:48;;;;;;;22.55;11.60;;;;;;;;;;8317308;28;20074;-75
2021/12/04 12:57:51;;;;;;;57.47;24.95;;;;;;;;;;8317380;28;20315;-75
2021/12/04 13:15:11;;;;;;;20.47;9.33;;;;;;;;;;8317252;28;20053;-75
2021/12/04 13:19:17;;;;;;;24.65;11.43;;;;;;;;;;8317103;28;20050;-74
2021/12/04 13:23:23;;;;;;;19.60;10.55;;;;;;;;;;8310991;28;20328;-74
2021/12/04 13:31:31;;;;;;;17.13;8.88;;;;;;;;;;8332143;28;20046;-75
2021/12/04 13:35:34;;;;;;;19.00;8.90;;;;;;;;;;8309185;28;20045;-75
2021/12/04 13:39:38;;;;;;;16.27;7.70;;;;;;;;;;8314410;28;20049;-75
2021/12/04 13:43:53;;;;;;;22.42;9.73;;;;;;;;;;8316156;28;20134;-74
2021/12/04 13:47:59;;;;;;;23.98;8.88;;;;;;;;;;8345251;28;20251;-74
2021/12/04 13:52:06;;;;;;;22.33;9.75;;;;;;;;;;8324648;28;20120;-75
2021/12/04 13:56:13;;;;;;;20.17;9.75;;;;;;;;;;8324699;28;20105;-74
2021/12/04 14:00:20;;;;;;;18.45;6.70;;;;;;;;;;8306697;28;20054;-75
2021/12/04 14:04:26;;;;;;;16.35;7.10;;;;;;;;;;8325676;28;20037;-75
2021/12/04 14:08:30;;;;;;;16.85;6.80;;;;;;;;;;8347517;28;20053;-78
2021/12/04 14:12:35;;;;;;;27.55;11.30;;;;;;;;;;8341889;28;20046;-76
2021/12/04 14:16:41;;;;;;;60.28;26.77;;;;;;;;;;8339842;28;20049;-75
2021/12/04 14:20:48;;;;;;;27.08;9.88;;;;;;;;;;8344075;28;20053;-75
2021/12/04 14:24:57;;;;;;;23.73;10.25;;;;;;;;;;8334712;28;20382;-74
2021/12/04 14:29:00;;;;;;;28.80;9.07;;;;;;;;;;8335704;28;20049;-75
2021/12/04 14:33:09;;;;;;;22.88;9.45;;;;;;;;;;8354928;28;20041;-74
2021/12/04 14:37:15;;;;;;;33.47;12.45;;;;;;;;;;8347567;28;20044;-78
2021/12/04 14:41:19;;;;;;;32.50;13.90;;;;;;;;;;8317624;28;20172;-75
2021/12/04 14:45:24;;;;;;;18.27;9.57;;;;;;;;;;8332735;28;20449;-76
2021/12/04 14:49:30;;;;;;;25.95;9.30;;;;;;;;;;8325041;28;20076;-76
2021/12/04 14:53:43;;;;;;;21.77;9.45;;;;;;;;;;8328334;28;20045;-76
2021/12/04 14:57:48;;;;;;;24.10;12.27;;;;;;;;;;8331520;28;20049;-75
2021/12/04 15:01:52;;;;;;;24.83;13.60;;;;;;;;;;8336616;28;20045;-75
2021/12/04 15:06:01;;;;;;;39.67;22.38;;;;;;;;;;8324383;28;20068;-75
2021/12/04 15:10:20;;;;;;;30.08;17.33;;;;;;;;;;8353891;28;20045;-75
2021/12/04 15:14:32;;;;;;;26.20;13.23;;;;;;;;;;8328429;28;20061;-74
2021/12/04 15:18:42;;;;;;;58.03;34.55;;;;;;;;;;8347303;28;20033;-74
2021/12/04 15:22:54;;;;;;;26.07;13.20;;;;;;;;;;8326723;28;20046;-74
2021/12/04 15:27:01;;;;;;;26.98;11.43;;;;;;;;;;8350942;28;20053;-74
2021/12/04 15:31:09;;;;;;;65.60;28.00;;;;;;;;;;8334215;28;20163;-74
2021/12/04 15:35:28;;;;;;;43.65;24.17;;;;;;;;;;8352545;28;20047;-74
2021/12/04 15:39:36;;;;;;;415.75;117.78;;;;;;;;;;8353627;28;20093;-75
2021/12/04 15:43:54;;;;;;;41.45;17.85;;;;;;;;;;8335747;28;20385;-75
2021/12/04 15:57:11;;;;;;;31.05;14.90;;;;;;;;;;8276968;28;20049;-74
2021/12/04 16:01:14;;;;;;;68.30;24.77;;;;;;;;;;8335043;28;20253;-78
2021/12/04 16:05:21;;;;;;;25.83;13.18;;;;;;;;;;8352097;28;20041;-74
2021/12/04 16:09:31;;;;;;;34.08;15.60;;;;;;;;;;8334724;28;20322;-74
2021/12/04 16:13:38;;;;;;;29.20;13.82;;;;;;;;;;8334729;28;20390;-75
2021/12/04 16:17:41;;;;;;;25.17;11.60;;;;;;;;;;8352985;28;20041;-75
2021/12/04 16:21:45;;;;;;;25.30;11.32;;;;;;;;;;8351816;28;20149;-73
2021/12/04 16:25:50;;;;;;;26.48;12.90;;;;;;;;;;8351870;28;20164;-74
2021/12/04 16:29:59;;;;;;;24.27;11.65;;;;;;;;;;8334358;28;20112;-74
2021/12/04 16:35:03;;;;;;;37.95;19.27;;;;;;;;;;8352916;28;20048;-76
2021/12/04 16:38:28;;;;;;;32.08;14.50;;;;;;;;;;8332854;28;20215;-74
2021/12/04 16:42:33;;;;;;;32.92;15.18;;;;;;;;;;8333494;28;20053;-74
2021/12/04 16:46:41;;;;;;;27.23;13.25;;;;;;;;;;8352164;28;20041;-75
2021/12/04 16:55:25;;;;;;;34.08;15.00;;;;;;;;;;8351023;28;20108;-76
2021/12/04 16:59:33;;;;;;;28.95;13.68;;;;;;;;;;8351972;28;20041;-75
2021/12/04 17:03:38;;;;;;;35.42;16.13;;;;;;;;;;8351794;28;20082;-74
2021/12/04 17:07:45;;;;;;;35.50;13.13;;;;;;;;;;8350967;28;20215;-74
2021/12/04 17:11:53;;;;;;;27.15;12.52;;;;;;;;;;8350331;28;20045;-75
2021/12/04 17:15:57;;;;;;;29.70;12.93;;;;;;;;;;8351793;28;20119;-75
2021/12/04 17:20:05;;;;;;;28.23;13.13;;;;;;;;;;8350848;28;20045;-73
2021/12/04 17:24:11;;;;;;;43.65;18.08;;;;;;;;;;8351649;28;20111;-74
2021/12/04 17:28:15;;;;;;;37.55;15.85;;;;;;;;;;8333795;28;20063;-73
2021/12/04 17:32:24;;;;;;;54.22;22.98;;;;;;;;;;8349921;28;20053;-75
2021/12/04 17:36:32;;;;;;;31.95;14.88;;;;;;;;;;8333246;28;20045;-75
2021/12/04 17:40:37;;;;;;;27.55;12.40;;;;;;;;;;8351194;28;20053;-75
2021/12/04 17:44:41;;;;;;;38.78;19.48;;;;;;;;;;8350408;28;20091;-74
2021/12/04 17:48:45;;;;;;;28.35;11.25;;;;;;;;;;8349885;28;20049;-75
2021/12/04 17:52:51;;;;;;;30.35;12.13;;;;;;;;;;8349794;28;20116;-75
2021/12/04 17:56:56;;;;;;;29.95;13.30;;;;;;;;;;8350629;28;20042;-75
2021/12/04 18:01:04;;;;;;;53.42;21.90;;;;;;;;;;8332790;28;20083;-75
2021/12/04 18:05:11;;;;;;;70.82;29.15;;;;;;;;;;8349421;28;20037;-74
2021/12/04 18:09:19;;;;;;;37.67;16.95;;;;;;;;;;8333181;28;20061;-75
2021/12/04 18:13:24;;;;;;;33.80;17.30;;;;;;;;;;8351092;28;20064;-74
2021/12/04 18:17:28;;;;;;;55.55;32.55;;;;;;;;;;8349270;28;20052;-74
2021/12/04 18:21:33;;;;;;;42.63;20.73;;;;;;;;;;8349816;28;20045;-74
2021/12/04 18:25:39;;;;;;;29.40;16.67;;;;;;;;;;8350329;28;20054;-75
2021/12/04 18:29:44;;;;;;;33.78;17.33;;;;;;;;;;8352887;28;20057;-75
2021/12/04 18:33:48;;;;;;;45.08;24.55;;;;;;;;;;8338863;28;20049;-76
2021/12/04 18:37:52;;;;;;;50.53;24.88;;;;;;;;;;8337746;28;20231;-75
2021/12/04 18:41:59;;;;;;;36.67;20.20;;;;;;;;;;8336701;28;20057;-74
2021/12/04 18:46:03;;;;;;;37.55;20.63;;;;;;;;;;8355572;28;20303;-79
2021/12/04 18:50:10;;;;;;;24.30;12.07;;;;;;;;;;8355531;28;20044;-74
2021/12/04 18:54:15;;;;;;;31.10;16.67;;;;;;;;;;8355856;28;20042;-74
2021/12/04 18:58:21;;;;;;;27.45;11.82;;;;;;;;;;8337199;28;20053;-74
2021/12/04 19:02:30;;;;;;;28.95;11.55;;;;;;;;;;8354270;28;20048;-74
2021/12/04 19:06:36;;;;;;;31.63;13.65;;;;;;;;;;8337486;28;20231;-75
2021/12/04 19:10:43;;;;;;;30.77;12.30;;;;;;;;;;8338471;28;20055;-74
2021/12/04 19:14:51;;;;;;;28.67;13.15;;;;;;;;;;8356219;28;20049;-74
2021/12/04 19:18:55;;;;;;;27.25;12.73;;;;;;;;;;8337181;28;20053;-74
2021/12/04 19:23:00;;;;;;;24.98;13.20;;;;;;;;;;8354172;28;20483;-74
2021/12/04 19:27:07;;;;;;;27.23;12.68;;;;;;;;;;8354780;28;20234;-75
2021/12/04 19:31:16;;;;;;;35.78;15.98;;;;;;;;;;8354863;28;20334;-74
2021/12/04 19:49:01;;;;;;;30.80;13.63;;;;;;;;;;8493913;28;20048;-74
2021/12/04 19:53:23;;;;;;;31.30;13.88;;;;;;;;;;8490932;28;20047;-72
2021/12/04 19:57:34;;;;;;;26.48;12.40;;;;;;;;;;8486793;28;20134;-73
2021/12/04 20:01:42;;;;;;;32.05;12.40;;;;;;;;;;8481482;28;20035;-75
2021/12/04 20:06:00;;;;;;;34.30;12.80;;;;;;;;;;8483836;28;20039;-75
2021/12/04 20:14:25;;;;;;;29.35;12.80;;;;;;;;;;8490942;28;20047;-73
2021/12/04 20:18:29;;;;;;;29.98;12.55;;;;;;;;;;8486995;28;20070;-73
2021/12/04 20:22:33;;;;;;;38.33;15.07;;;;;;;;;;8492343;28;20066;-74
2021/12/04 20:26:38;;;;;;;29.00;12.73;;;;;;;;;;8492685;28;20463;-73
2021/12/04 20:30:58;;;;;;;34.35;13.63;;;;;;;;;;8492218;28;20491;-74
2021/12/04 20:52:50;;;;;;;30.35;11.90;;;;;;;;;;8468719;28;20044;-74
2021/12/04 21:10:20;;;;;;;29.42;12.43;;;;;;;;;;8468334;28;20081;-74
2021/12/04 21:49:29;;;;;;;26.92;12.55;;;;;;;;;;8421882;28;20134;-77
2021/12/04 21:53:32;;;;;;;28.85;11.15;;;;;;;;;;8467351;28;20131;-74
2021/12/04 21:57:58;;;;;;;27.83;12.65;;;;;;;;;;8466572;28;20052;-73
2021/12/04 22:10:46;;;;;;;25.38;11.27;;;;;;;;;;8466343;28;20047;-73
2021/12/04 22:15:00;;;;;;;26.27;12.07;;;;;;;;;;8465525;28;20502;-74
2021/12/04 22:19:25;;;;;;;33.33;13.02;;;;;;;;;;8432183;28;20055;-72
2021/12/04 22:24:14;;;;;;;33.33;13.05;;;;;;;;;;8455998;28;20047;-74
2021/12/04 22:58:48;;;;;;;30.85;12.80;;;;;;;;;;8464768;28;20039;-76
2021/12/04 23:02:51;;;;;;;29.63;11.90;;;;;;;;;;8464631;28;20044;-72
2021/12/04 23:11:21;;;;;;;29.55;11.73;;;;;;;;;;8464248;28;20081;-76
2021/12/04 23:15:30;;;;;;;28.15;11.48;;;;;;;;;;8464456;28;20049;-73
2021/12/04 23:32:13;;;;;;;25.02;11.35;;;;;;;;;;8464259;28;20051;-73
2021/12/04 23:37:38;;;;;;;29.52;13.05;;;;;;;;;;8463700;28;20402;-73
2021/12/04 23:42:00;;;;;;;29.65;11.93;;;;;;;;;;8463881;28;20048;-74
2021/12/04 23:46:42;;;;;;;30.80;13.27;;;;;;;;;;8463951;28;20059;-72
